• Join FlightAware (Why Join?)
  • Login
  • US Flag 
08:24AM EDT


 

Airport Tracker/Info


-or-


 

Live Flight TrackerFlight Track Log ✈ UAL1062 ✈ 23-Jun-2013 ✈ KDFW - KIAD

Flight Track Log - Related Links

Times and Time Zones

All times are in EDT time to prevent confusion due to time zone crossing. See the UAL1062 flight status page for this flight to view local times or setup timezone preferences in your user account.

Time Position Orientation Groundspeed Altitude Reporting Facility
EDT Latitude Longitude Course Direction KTS MPH feet Rate Location/Type
09:01AM 32.8400 -97.0210 158° South 203 234 3,000  Level FlightAware
09:02AM 32.8130 -97.0090 160° South 214 246 4,300 2,280 Climbing FlightAware
09:02AM 32.7880 -96.9960 156° South 244 281 5,100 2,100 Climbing FlightAware
09:02AM 32.7770 -96.9790 128° Southeast 259 298 5,700 2,580 Climbing FlightAware
09:03AM 32.7710 -96.9590 110° East 263 303 6,400 2,820 Climbing FlightAware
09:03AM 32.7650 -96.9230 101° East 272 313 7,600 2,760 Climbing FlightAware
09:03AM 32.7670 -96.8850 86° East 286 329 8,700 2,400 Climbing FlightAware
09:04AM 32.7690 -96.8400 87° East 297 342 9,800 1,860 Climbing FlightAware
09:05AM 32.7910 -96.7730 69° East 339 390 10,900 1,260 Climbing FlightAware
09:05AM 32.8200 -96.7050 63° Northeast 381 438 11,500 1,320 Climbing FlightAware
09:06AM 32.8570 -96.6150 64° Northeast 403 464 12,800 1,920 Climbing FlightAware
09:07AM 32.8860 -96.5410 65° Northeast 409 471 14,300 2,280 Climbing FlightAware
09:07AM 32.9170 -96.4640 64° Northeast 415 478 15,600 2,100 Climbing FlightAware
09:08AM 32.9490 -96.3860 64° Northeast 425 489 16,800 1,860 Climbing FlightAware
09:09AM 32.9750 -96.2950 71° East 437 503 18,000 1,860 Climbing FlightAware
09:09AM 32.9890 -96.2000 80° East 441 507 19,300 1,680 Climbing FlightAware
09:10AM 33.0020 -96.1050 81° East 451 519 20,300 1,560 Climbing FlightAware
09:11AM 33.0196 -95.9740 81° East 458 527 21,700 1,560 Climbing FlightAware ADS-B
09:11AM 33.0323 -95.8800 81° East 463 533 22,700 1,320 Climbing FlightAware ADS-B
09:12AM 33.0495 -95.7529 81° East 469 540 23,700 1,200 Climbing FlightAware ADS-B
09:13AM 33.0609 -95.6680 81° East 481 554 24,400 1,260 Climbing FlightAware ADS-B
09:13AM 33.0711 -95.5937 81° East 486 559 25,000 1,140 Climbing FlightAware ADS-B
09:14AM 33.1160 -95.4290 72° East 493 567 26,200 1,080 Climbing FlightAware
09:15AM 33.1276 -95.3883 71° East 496 571 26,500 1,560 Climbing FlightAware ADS-B
09:15AM 33.1513 -95.3092 70° East 492 566 27,400 1,620 Climbing FlightAware ADS-B
09:16AM 33.1766 -95.2248 70° East 489 563 28,300 1,380 Climbing FlightAware ADS-B
09:16AM 33.2047 -95.1307 70° East 489 563 29,100 1,320 Climbing FlightAware ADS-B
09:17AM 33.2274 -95.0545 70° East 487 560 29,800 1,320 Climbing FlightAware ADS-B
09:17AM 33.2512 -94.9745 70° East 486 559 30,500 1,260 Climbing FlightAware ADS-B
09:18AM 33.2759 -94.8895 71° East 485 558 31,200 1,200 Climbing FlightAware ADS-B
09:18AM 33.2987 -94.8108 71° East 486 559 31,800 1,200 Climbing FlightAware ADS-B
09:19AM 33.3367 -94.6824 70° East 486 559 32,900 1,140 Climbing FlightAware ADS-B
09:20AM 33.3744 -94.5548 70° East 480 552 33,800 660 Climbing FlightAware ADS-B
09:22AM 33.4705 -94.2239 71° East 477 549 35,000 420 Climbing FlightAware ADS-B
09:23AM 33.4923 -94.1483 71° East 478 550 35,000  Level FlightAware ADS-B
09:23AM 33.5129 -94.0783 71° East 477 549 35,000  Level FlightAware ADS-B
09:24AM 33.5542 -93.9705 65° Northeast 478 550 35,000  Level FlightAware ADS-B
09:25AM 33.6286 -93.7914 65° Northeast 481 554 35,000  Level Fort Worth Center
09:26AM 33.6828 -93.6469 66° East 481 554 35,000  Level Fort Worth Center
09:27AM 33.7256 -93.5292 66° East 462 532 35,000  Level Memphis Center
09:28AM 33.7814 -93.3861 65° Northeast 457 526 35,000  Level Memphis Center
09:29AM 33.8389 -93.2431 64° Northeast 462 532 35,000  Level Memphis Center
09:30AM 33.8922 -93.0997 66° East 462 532 35,000  Level Memphis Center
09:31AM 33.9453 -92.9589 66° East 462 532 35,000  Level Memphis Center
09:32AM 34.0006 -92.8125 65° Northeast 462 532 35,000  Level Memphis Center
09:33AM 34.0553 -92.6686 65° Northeast 462 532 35,000  Level Memphis Center
09:34AM 34.1083 -92.5097 68° East 462 532 35,000  Level Memphis Center
09:35AM 34.1631 -92.3628 66° East 468 539 35,000  Level Memphis Center
09:36AM 34.2153 -92.2183 66° East 474 545 35,000  Level Memphis Center
09:37AM 34.2717 -92.0714 65° Northeast 474 545 35,000  Level Memphis Center
09:38AM 34.3236 -91.9264 67° East 474 545 35,000  Level Memphis Center
09:39AM 34.3753 -91.7839 66° East 474 545 35,000  Level Memphis Center
09:40AM 34.4247 -91.6564 65° Northeast 467 537 35,000  Level Memphis Center
09:41AM 34.4783 -91.5111 66° East 467 537 35,000  Level Memphis Center
09:42AM 34.5297 -91.3681 66° East 456 525 35,000  Level Memphis Center
09:43AM 34.5831 -91.2250 66° East 456 525 35,000  Level Memphis Center
09:44AM 34.6339 -91.0764 67° East 456 525 35,000 300 Level Memphis Center
09:45AM 34.6847 -90.9306 67° East 461 531 35,600 600 Climbing Memphis Center
09:46AM 34.7417 -90.7717 66° East 461 531 36,200 660 Climbing Memphis Center
09:47AM 34.7922 -90.6250 67° East 461 531 37,000 360 Climbing Memphis Center
09:48AM 34.8444 -90.4836 66° East 455 524 37,000  Level Memphis Center
09:49AM 34.8947 -90.3369 67° East 462 532 37,000  Level Memphis Center
09:50AM 34.9467 -90.1925 66° East 462 532 37,000  Level Memphis Center
09:51AM 34.9986 -90.0453 67° East 456 525 37,000  Level Memphis Center
09:52AM 35.0544 -89.9006 65° Northeast 462 532 37,000  Level Memphis Center
09:53AM 35.0978 -89.7683 68° East 462 532 37,000  Level Memphis Center
09:54AM 35.1492 -89.6206 67° East 462 532 37,000  Level Memphis Center
09:55AM 35.1983 -89.4778 67° East 451 519 37,000  Level Memphis Center
09:56AM 35.2511 -89.3222 67° East 458 527 37,000  Level Memphis Center
09:57AM 35.3022 -89.1792 66° East 453 521 37,000  Level Memphis Center
09:58AM 35.3508 -89.0383 67° East 453 521 37,000  Level Memphis Center
09:59AM 35.3992 -88.8950 67° East 453 521 37,000  Level Memphis Center
10:00AM 35.4394 -88.7694 68° East 451 519 37,000  Level Memphis Center
10:06AM 35.7330 -87.9170 68° East 459 528 37,000  Level FlightAware
10:07AM 35.7590 -87.8430 67° East 459 528 37,000  Level FlightAware
10:07AM 35.8030 -87.7050 69° East 457 526 37,000  Level FlightAware
10:08AM 35.8350 -87.6100 67° East 456 525 37,000  Level FlightAware
10:09AM 35.8690 -87.5050 68° East 458 527 37,000  Level FlightAware
10:09AM 35.9000 -87.4110 68° East 462 532 37,000  Level FlightAware
10:10AM 35.9380 -87.2980 67° East 463 533 37,000  Level FlightAware
10:11AM 35.9690 -87.2020 68° East 464 534 37,000  Level FlightAware
10:11AM 35.9885 -87.1427 68° East 465 535 37,000  Level FlightAware ADS-B
10:12AM 36.0127 -87.0682 68° East 465 535 37,000  Level FlightAware ADS-B
10:12AM 36.0369 -86.9936 68° East 465 535 37,000  Level FlightAware ADS-B
10:13AM 36.0660 -86.9050 68° East 466 536 37,000  Level FlightAware
10:13AM 36.0757 -86.8746 68° East 466 536 37,000  Level FlightAware ADS-B
10:14AM 36.1000 -86.7994 68° East 466 536 37,000  Level FlightAware ADS-B
10:14AM 36.1290 -86.7090 68° East 467 537 37,000  Level FlightAware
10:15AM 36.1439 -86.6634 68° East 466 536 37,000  Level FlightAware ADS-B
10:15AM 36.1680 -86.5891 68° East 468 539 37,000  Level FlightAware ADS-B
10:16AM 36.1923 -86.5146 68° East 469 540 37,000  Level FlightAware ADS-B
10:16AM 36.2164 -86.4397 68° East 469 540 37,000  Level FlightAware ADS-B
10:17AM 36.2407 -86.3643 68° East 470 541 37,000  Level FlightAware ADS-B
10:17AM 36.2674 -86.2815 68° East 472 543 37,000  Level FlightAware ADS-B
10:18AM 36.2980 -86.1850 68° East 474 545 37,000  Level FlightAware
10:18AM 36.3210 -86.1150 68° East 475 547 37,000  Level FlightAware
10:19AM 36.3436 -86.0436 69° East 476 548 37,000  Level FlightAware ADS-B
10:19AM 36.3716 -85.9553 68° East 477 549 37,000  Level FlightAware ADS-B
10:20AM 36.3960 -85.8780 69° East 478 550 37,000  Level FlightAware ADS-B
10:20AM 36.4216 -85.7968 69° East 479 551 37,000  Level FlightAware ADS-B
10:21AM 36.4690 -85.6460 69° East 479 551 37,000  Level FlightAware
10:22AM 36.4826 -85.6035 68° East 479 551 37,000  Level FlightAware ADS-B
10:22AM 36.5084 -85.5209 69° East 478 550 37,000  Level FlightAware ADS-B
10:23AM 36.5370 -85.4296 69° East 478 550 37,000  Level FlightAware ADS-B
10:23AM 36.5623 -85.3483 69° East 478 550 37,000  Level FlightAware ADS-B
10:24AM 36.6053 -85.2097 69° East 477 549 37,000  Level FlightAware ADS-B
10:25AM 36.6300 -85.1300 69° East 477 549 37,000  Level FlightAware ADS-B
10:26AM 36.6724 -84.9922 69° East 475 547 37,000  Level FlightAware ADS-B
10:26AM 36.7056 -84.8836 69° East 476 548 37,000  Level FlightAware ADS-B
10:27AM 36.7293 -84.8059 69° East 476 548 37,000  Level FlightAware ADS-B
10:27AM 36.7530 -84.7279 69° East 476 548 37,000  Level FlightAware ADS-B
10:28AM 36.7765 -84.6506 69° East 476 548 37,000  Level FlightAware ADS-B
10:28AM 36.8017 -84.5679 69° East 476 548 37,000  Level FlightAware ADS-B
10:29AM 36.8270 -84.4848 69° East 477 549 37,000  Level FlightAware ADS-B
10:29AM 36.8502 -84.4075 69° East 476 548 37,000  Level FlightAware ADS-B
10:30AM 36.8738 -84.3287 69° East 477 549 37,000  Level FlightAware ADS-B
10:30AM 36.8970 -84.2512 69° East 477 549 37,000  Level FlightAware ADS-B
10:31AM 36.9213 -84.1699 69° East 478 550 37,000  Level FlightAware ADS-B
10:32AM 36.9622 -84.0321 70° East 479 551 37,000  Level FlightAware ADS-B
10:32AM 36.9863 -83.9506 70° East 477 549 37,000  Level FlightAware ADS-B
10:33AM 37.0096 -83.8720 70° East 477 549 37,000  Level FlightAware ADS-B
10:33AM 37.0329 -83.7926 70° East 477 549 37,000  Level FlightAware ADS-B
10:34AM 37.0569 -83.7104 70° East 477 549 37,000  Level FlightAware ADS-B
10:34AM 37.0801 -83.6311 70° East 476 548 37,000  Level FlightAware ADS-B
10:35AM 37.1028 -83.5535 70° East 475 547 37,000  Level FlightAware ADS-B
10:35AM 37.1282 -83.4670 70° East 474 545 37,000  Level FlightAware ADS-B
10:36AM 37.1530 -83.3821 70° East 474 545 37,000  Level FlightAware ADS-B
10:36AM 37.1766 -83.3003 70° East 474 545 37,000  Level FlightAware ADS-B
10:37AM 37.1997 -83.2196 70° East 474 545 37,000  Level FlightAware ADS-B
10:38AM 37.2234 -83.1369 70° East 473 544 37,000  Level FlightAware ADS-B
10:38AM 37.2458 -83.0589 70° East 471 542 37,000  Level FlightAware ADS-B
10:39AM 37.2689 -82.9780 70° East 471 542 37,000  Level FlightAware ADS-B
10:39AM 37.2918 -82.8978 70° East 469 540 37,000  Level FlightAware ADS-B
10:40AM 37.3153 -82.8151 70° East 469 540 37,000  Level FlightAware ADS-B
10:40AM 37.3397 -82.7294 70° East 468 539 37,000  Level FlightAware ADS-B
10:41AM 37.3646 -82.6417 70° East 468 539 37,000  Level FlightAware ADS-B
10:41AM 37.3863 -82.5644 71° East 470 541 37,000  Level FlightAware ADS-B
10:42AM 37.4130 -82.4680 71° East 472 543 37,000  Level FlightAware
10:43AM 37.4406 -82.3693 71° East 473 544 37,000  Level FlightAware ADS-B
10:43AM 37.4642 -82.2849 71° East 473 544 37,000  Level FlightAware ADS-B
10:44AM 37.4880 -82.1995 71° East 473 544 37,000  Level FlightAware ADS-B
10:44AM 37.5110 -82.1167 71° East 473 544 37,000  Level FlightAware ADS-B
10:45AM 37.5330 -82.0371 71° East 471 542 37,000  Level FlightAware ADS-B
10:45AM 37.5547 -81.9582 71° East 469 540 37,000  Level FlightAware ADS-B
10:46AM 37.5840 -81.8517 71° East 467 537 37,000  Level FlightAware ADS-B
10:47AM 37.6120 -81.7480 71° East 467 537 37,000  Level FlightAware
10:47AM 37.6298 -81.6831 71° East 468 539 37,000  Level FlightAware ADS-B
10:48AM 37.6586 -81.5769 71° East 470 541 37,000  Level FlightAware ADS-B
10:48AM 37.6807 -81.4947 71° East 471 542 37,000  Level FlightAware ADS-B
10:49AM 37.7134 -81.3735 71° East 471 542 37,000  Level FlightAware ADS-B
10:50AM 37.7590 -81.2020 71° East 471 542 37,000  Level FlightAware
10:51AM 37.7860 -81.1080 70° East 471 542 37,000  Level FlightAware
10:51AM 37.8250 -80.9980 66° East 472 543 37,000  Level FlightAware
10:52AM 37.8600 -80.8970 66° East 468 539 37,000  Level FlightAware
10:53AM 37.9010 -80.7820 66° East 467 537 37,000  Level FlightAware
10:53AM 37.9259 -80.7145 65° Northeast 468 539 37,000 -720 Level FlightAware ADS-B
10:54AM 37.9890 -80.5980 55° Northeast 472 543 36,100 -1,020 Descending FlightAware
10:55AM 38.0520 -80.4950 52° Northeast 475 547 35,400 -960 Descending FlightAware
10:56AM 38.1020 -80.4100 53° Northeast 476 548 34,800 -1,020 Descending FlightAware
10:56AM 38.1630 -80.3110 52° Northeast 473 544 34,000 -600 Descending FlightAware
10:57AM 38.2160 -80.2220 53° Northeast 473 544 34,000 -240 Level FlightAware
10:58AM 38.2680 -80.1310 54° Northeast 469 540 33,700 -780 Descending FlightAware
10:58AM 38.3210 -80.0300 56° Northeast 467 537 32,900 -1,440 Descending FlightAware
10:59AM 38.3700 -79.9360 56° Northeast 459 528 31,700 -1,920 Descending FlightAware
11:00AM 38.4140 -79.8520 56° Northeast 449 517 30,400 -2,100 Descending FlightAware
11:00AM 38.4510 -79.7380 67° East 425 489 28,700 -2,160 Descending FlightAware
11:01AM 38.4700 -79.6570 73° East 417 480 27,500 -2,040 Descending FlightAware
11:02AM 38.4900 -79.5700 74° East 409 471 26,300 -2,220 Descending FlightAware
11:02AM 38.5150 -79.4620 73° East 418 481 24,400 -1,320 Descending FlightAware
11:03AM 38.5420 -79.3170 77° East 432 497 24,000 -1,560 Descending FlightAware
11:05AM 38.5850 -79.0630 78° East 413 475 20,300 -2,100 Descending FlightAware
11:06AM 38.6060 -78.9370 78° East 400 460 18,500 -2,160 Descending FlightAware
11:07AM 38.6220 -78.8460 77° East 394 453 16,900 -2,340 Descending FlightAware
11:07AM 38.6430 -78.7500 74° East 390 449 15,300 -2,220 Descending FlightAware
11:08AM 38.6620 -78.6690 73° East 383 441 14,000 -2,100 Descending FlightAware
11:09AM 38.6860 -78.5660 73° East 371 427 12,300 -1,860 Descending FlightAware
11:10AM 38.7100 -78.4670 73° East 365 420 11,100 -1,080 Descending FlightAware
11:10AM 38.7260 -78.3980 73° East 314 361 10,800 -240 Descending FlightAware
11:11AM 38.7640 -78.3310 54° Northeast 297 342 10,800 -540 Level FlightAware
11:12AM 38.8020 -78.2790 47° Northeast 292 336 10,100 -1,080 Descending FlightAware
11:12AM 38.8160 -78.2590 48° Northeast 290 334 9,800 -1,080 Descending FlightAware
11:13AM 38.8390 -78.2260 48° Northeast 273 314 9,300 -1,140 Descending FlightAware
11:13AM 38.8550 -78.1960 56° Northeast 266 306 8,900 -1,200 Descending FlightAware
11:13AM 38.8620 -78.1740 68° East 261 300 8,600 -1,020 Descending FlightAware
11:14AM 38.8700 -78.1400 73° East 251 289 8,200 -1,200 Descending FlightAware
11:14AM 38.8780 -78.1110 70° East 248 285 7,700 -1,860 Descending FlightAware
11:14AM 38.8860 -78.0780 73° East 257 296 6,900 -1,560 Descending FlightAware
11:15AM 38.8980 -78.0310 72° East 250 288 6,300 -1,200 Descending FlightAware
11:15AM 38.9070 -77.9960 72° East 247 284 5,800 -660 Descending FlightAware
11:16AM 38.9170 -77.9570 72° East 240 276 5,700  Descending FlightAware
11:16AM 38.9220 -77.9350 74° East 240 276 5,800 120 Climbing FlightAware
11:16AM 38.9310 -77.9010 71° East 240 276 5,800  Level FlightAware
11:17AM 38.9400 -77.8640 73° East 240 276 5,800  Level FlightAware
11:17AM 38.9490 -77.8280 72° East 240 276 5,800  Level FlightAware
11:18AM 38.9570 -77.7940 73° East 240 276 5,800  Level FlightAware
11:18AM 38.9640 -77.7590 76° East 243 280 5,800 -120 Level FlightAware
11:19AM 38.9570 -77.6800 96° East 222 255 5,700 -120 Descending FlightAware
11:19AM 38.9560 -77.6680 96° East 217 250 5,700 180 Level FlightAware
11:20AM 38.9530 -77.6430 99° East 215 247 5,800 120 Climbing FlightAware
11:20AM 38.9470 -77.6270 116° Southeast 215 247 5,800  Level FlightAware
11:20AM 38.9350 -77.6150 142° Southeast 217 250 5,800  Level FlightAware
11:20AM 38.9120 -77.6030 158° South 217 250 5,800  Level FlightAware
11:21AM 38.8830 -77.5880 158° South 216 249 5,800  Level FlightAware
11:21AM 38.8600 -77.5770 160° South 217 250 5,800  Level FlightAware
11:22AM 38.8400 -77.5740 173° South 218 251 5,800  Level FlightAware
11:22AM 38.8150 -77.5750 182° South 218 251 5,800  Level FlightAware
11:23AM 38.7890 -77.5760 182° South 217 250 5,800  Level FlightAware
11:23AM 38.7590 -77.5780 183° South 217 250 5,800  Level FlightAware
11:24AM 38.7290 -77.5790 181° South 217 250 5,800  Level FlightAware
11:24AM 38.7030 -77.5800 182° South 217 250 5,800  Level FlightAware
11:24AM 38.6740 -77.5820 183° South 216 249 5,800  Level FlightAware
11:25AM 38.6500 -77.5830 182° South 216 249 5,800  Level FlightAware
11:25AM 38.6260 -77.5840 182° South 218 251 5,800  Level FlightAware
11:26AM 38.6020 -77.5850 182° South 219 252 5,800  Level FlightAware
11:26AM 38.5840 -77.5860 182° South 219 252 5,800  Level FlightAware
11:26AM 38.5660 -77.5870 182° South 219 252 5,800  Level FlightAware
11:27AM 38.5410 -77.5680 149° Southeast 216 249 5,800  Level FlightAware
11:27AM 38.5380 -77.5550 106° East 212 244 5,800  Level FlightAware
11:27AM 38.5480 -77.5280 65° Northeast 206 237 5,800 -120 Level FlightAware
11:28AM 38.5710 -77.5090 33° Northeast 206 237 5,700 -720 Descending FlightAware
11:28AM 38.5900 -77.4930 33° Northeast 206 237 5,200 -1,080 Descending FlightAware
11:29AM 38.6080 -77.4800 29° Northeast 197 227 4,900 -600 Descending FlightAware
11:29AM 38.6300 -77.4660 26° Northeast 182 209 4,700 -240 Descending FlightAware
11:30AM 38.6540 -77.4640 North 175 201 4,700  Level FlightAware
11:30AM 38.6690 -77.4640 360° North 175 201 4,700 120 Level FlightAware
11:30AM 38.6860 -77.4640 360° North 179 206 4,800 -300 Climbing FlightAware
11:31AM 38.7070 -77.4630 North 181 208 4,500 -960 Descending FlightAware
11:31AM 38.7290 -77.4630 360° North 181 208 4,000 -1,080 Descending FlightAware
11:31AM 38.7400 -77.4630 360° North 176 203 3,800 -840 Descending FlightAware
11:32AM 38.7660 -77.4620 North 179 206 3,400 -900 Descending FlightAware
11:32AM 38.7840 -77.4620 360° North 178 205 3,000 -1,020 Descending FlightAware
11:33AM 38.8150 -77.4620 360° North 177 204 2,400 -1,020 Descending FlightAware
11:33AM 38.8350 -77.4610 North 178 205 2,000 -960 Descending FlightAware
11:34AM 38.8530 -77.4610 360° North 168 193 1,600 -900 Descending FlightAware
11:34AM 38.8770 -77.4610 360° North 150 173 1,200 -840 Descending FlightAware
11:35AM 38.8980 -77.4610 360° North 151 174 800 -420 Descending FlightAware
11:35AM 38.9140 -77.4600 North 151 174 800  Level FlightAware